Time,TemperatureF,DewpointF,PressureIn,WindDirection,WindDirectionDegrees,WindSpeedMPH,WindSpeedGustMPH,Humidity,HourlyPrecipIn,Conditions,Clouds,dailyrainin,SoftwareType,DateUTC
2013-12-18 00:00:00,9.6,6.8,29.99,East,81,0.0,0.0,88,0.00,,,0.00,Wunderground v.1.15,2013-12-18 05:00:00,
2013-12-18 00:05:00,9.6,6.8,29.98,East,81,0.0,0.0,88,0.00,,,0.00,Wunderground v.1.15,2013-12-18 05:05:00,
2013-12-18 00:15:00,9.6,6.8,29.98,East,81,0.0,0.0,88,0.00,,,0.00,Wunderground v.1.15,2013-12-18 05:15:00,
2013-12-18 00:19:00,9.6,6.8,29.97,East,81,0.0,0.0,88,0.00,,,0.00,Wunderground v.1.15,2013-12-18 05:19:00,
2013-12-18 00:25:00,9.6,7.0,29.97,East,81,0.0,0.0,89,0.00,,,0.00,Wunderground v.1.15,2013-12-18 05:25:00,
2013-12-18 00:29:00,9.7,7.1,29.97,East,81,0.0,0.0,89,0.00,,,0.00,Wunderground v.1.15,2013-12-18 05:29:00,
2013-12-18 00:35:00,9.7,7.1,29.98,East,81,0.0,0.0,89,0.00,,,0.00,Wunderground v.1.15,2013-12-18 05:35:00,
2013-12-18 00:44:00,9.8,7.2,29.97,East,81,0.0,0.0,89,0.00,,,0.00,Wunderground v.1.15,2013-12-18 05:44:00,
2013-12-18 00:50:00,9.8,7.2,29.97,East,81,0.0,0.0,89,0.00,,,0.00,Wunderground v.1.15,2013-12-18 05:50:00,
2013-12-18 00:55:00,9.8,7.2,29.97,East,81,0.0,0.0,89,0.00,,,0.00,Wunderground v.1.15,2013-12-18 05:55:00,
2013-12-18 01:00:00,9.8,7.2,29.97,East,81,0.0,0.0,89,0.00,,,0.00,Wunderground v.1.15,2013-12-18 06:00:00,
2013-12-18 01:10:00,9.9,7.3,29.97,East,81,0.0,0.0,89,0.00,,,0.00,Wunderground v.1.15,2013-12-18 06:10:00,
2013-12-18 01:15:00,9.9,7.3,29.96,East,81,0.0,0.0,89,0.00,,,0.00,Wunderground v.1.15,2013-12-18 06:15:00,
2013-12-18 01:25:00,10.0,7.4,29.97,East,81,0.0,0.0,89,0.00,,,0.00,Wunderground v.1.15,2013-12-18 06:25:00,
2013-12-18 01:30:00,10.0,7.2,29.96,East,81,0.0,0.0,88,0.00,,,0.00,Wunderground v.1.15,2013-12-18 06:30:00,
2013-12-18 01:40:00,10.1,7.3,29.96,East,81,0.0,0.0,88,0.00,,,0.00,Wunderground v.1.15,2013-12-18 06:40:00,
2013-12-18 01:50:00,10.1,7.3,29.96,East,81,0.0,0.0,88,0.00,,,0.00,Wunderground v.1.15,2013-12-18 06:50:00,
2013-12-18 01:55:00,10.2,7.4,29.96,East,81,0.0,0.0,88,0.00,,,0.00,Wunderground v.1.15,2013-12-18 06:55:00,
2013-12-18 02:05:00,10.2,7.4,29.96,East,81,0.0,0.0,88,0.00,,,0.00,Wunderground v.1.15,2013-12-18 07:05:00,
2013-12-18 02:10:00,10.3,7.5,29.96,East,81,0.0,0.0,88,0.00,,,0.00,Wunderground v.1.15,2013-12-18 07:10:00,
2013-12-18 02:15:00,10.3,7.5,29.96,East,81,0.0,0.0,88,0.00,,,0.00,Wunderground v.1.15,2013-12-18 07:15:00,
2013-12-18 02:20:00,10.3,7.5,29.96,East,81,0.0,0.0,88,0.00,,,0.00,Wunderground v.1.15,2013-12-18 07:20:00,
2013-12-18 02:30:00,10.4,7.6,29.95,East,81,0.0,0.0,88,0.00,,,0.00,Wunderground v.1.15,2013-12-18 07:30:00,
2013-12-18 02:40:00,10.4,7.6,29.95,East,81,0.0,0.0,88,0.00,,,0.00,Wunderground v.1.15,2013-12-18 07:40:00,
2013-12-18 02:45:00,10.4,7.6,29.95,East,81,0.0,0.0,88,0.00,,,0.00,Wunderground v.1.15,2013-12-18 07:45:00,
2013-12-18 02:50:00,10.5,7.6,29.96,East,81,0.0,0.0,88,0.00,,,0.00,Wunderground v.1.15,2013-12-18 07:50:00,
2013-12-18 02:55:00,10.5,7.9,29.96,East,81,0.0,0.0,89,0.00,,,0.00,Wunderground v.1.15,2013-12-18 07:55:00,
2013-12-18 03:00:00,10.5,7.9,29.96,East,81,0.0,0.0,89,0.00,,,0.00,Wunderground v.1.15,2013-12-18 08:00:00,
2013-12-18 03:10:00,10.5,7.9,29.96,East,81,0.0,0.0,89,0.00,,,0.00,Wunderground v.1.15,2013-12-18 08:10:00,
2013-12-18 03:15:00,10.5,7.9,29.95,East,81,0.0,0.0,89,0.00,,,0.00,Wunderground v.1.15,2013-12-18 08:15:00,
2013-12-18 03:25:00,10.5,7.9,29.95,East,81,0.0,0.0,89,0.00,,,0.00,Wunderground v.1.15,2013-12-18 08:25:00,
2013-12-18 03:30:00,10.4,7.8,29.95,East,81,0.0,0.0,89,0.00,,,0.00,Wunderground v.1.15,2013-12-18 08:30:00,
2013-12-18 03:40:00,10.5,7.9,29.95,East,81,0.0,0.0,89,0.00,,,0.00,Wunderground v.1.15,2013-12-18 08:40:00,
2013-12-18 03:45:00,10.4,7.8,29.95,East,81,0.0,0.0,89,0.00,,,0.00,Wunderground v.1.15,2013-12-18 08:45:00,
2013-12-18 03:55:00,10.4,7.8,29.95,East,81,0.0,0.0,89,0.00,,,0.00,Wunderground v.1.15,2013-12-18 08:55:00,
2013-12-18 04:00:00,10.4,7.8,29.95,East,81,0.0,0.0,89,0.00,,,0.00,Wunderground v.1.15,2013-12-18 09:00:00,
2013-12-18 04:05:00,10.4,7.6,29.94,East,81,0.0,0.0,88,0.00,,,0.00,Wunderground v.1.15,2013-12-18 09:05:00,
2013-12-18 04:14:00,10.4,7.6,29.94,East,81,0.0,0.0,88,0.00,,,0.00,Wunderground v.1.15,2013-12-18 09:14:00,
2013-12-18 04:20:00,10.4,7.6,29.94,East,81,0.0,0.0,88,0.00,,,0.00,Wunderground v.1.15,2013-12-18 09:20:00,
2013-12-18 04:25:00,10.4,7.6,29.94,East,81,0.0,0.0,88,0.00,,,0.00,Wunderground v.1.15,2013-12-18 09:25:00,
2013-12-18 04:35:00,10.4,7.8,29.94,East,81,0.0,0.0,89,0.00,,,0.00,Wunderground v.1.15,2013-12-18 09:35:00,
2013-12-18 04:45:00,10.5,7.9,29.94,East,81,0.0,0.0,89,0.00,,,0.00,Wunderground v.1.15,2013-12-18 09:45:00,
2013-12-18 04:55:00,10.5,7.9,29.94,East,81,0.0,0.0,89,0.00,,,0.00,Wunderground v.1.15,2013-12-18 09:55:00,
2013-12-18 05:00:00,10.5,7.9,29.94,East,81,0.0,0.0,89,0.00,,,0.00,Wunderground v.1.15,2013-12-18 10:00:00,
2013-12-18 05:05:00,10.6,8.0,29.94,East,81,0.0,0.0,89,0.00,,,0.00,Wunderground v.1.15,2013-12-18 10:05:00,
2013-12-18 05:15:00,10.6,8.0,29.94,East,81,0.0,0.0,89,0.00,,,0.00,Wunderground v.1.15,2013-12-18 10:15:00,
2013-12-18 05:25:00,10.7,8.1,29.94,East,81,0.0,0.0,89,0.00,,,0.00,Wunderground v.1.15,2013-12-18 10:25:00,
2013-12-18 05:34:00,10.7,8.1,29.94,East,81,0.0,0.0,89,0.00,,,0.00,Wunderground v.1.15,2013-12-18 10:34:00,
2013-12-18 05:40:00,10.8,8.2,29.94,East,81,0.0,0.0,89,0.00,,,0.00,Wunderground v.1.15,2013-12-18 10:40:00,
2013-12-18 05:50:00,10.8,8.2,29.94,East,81,0.0,0.0,89,0.00,,,0.00,Wunderground v.1.15,2013-12-18 10:50:00,
2013-12-18 06:00:00,10.8,8.2,29.94,East,81,0.0,0.0,89,0.00,,,0.00,Wunderground v.1.15,2013-12-18 11:00:00,
2013-12-18 06:05:00,10.8,8.2,29.94,East,81,0.0,0.0,89,0.00,,,0.00,Wunderground v.1.15,2013-12-18 11:05:00,
2013-12-18 06:15:00,10.7,8.1,29.94,East,81,0.0,0.0,89,0.00,,,0.00,Wunderground v.1.15,2013-12-18 11:15:00,
2013-12-18 06:25:00,10.8,8.2,29.94,East,81,0.0,0.0,89,0.00,,,0.00,Wunderground v.1.15,2013-12-18 11:25:00,
2013-12-18 06:35:00,10.8,8.2,29.94,East,81,0.0,0.0,89,0.00,,,0.00,Wunderground v.1.15,2013-12-18 11:35:00,
2013-12-18 06:45:00,10.8,8.2,29.94,East,81,0.0,0.0,89,0.00,,,0.00,Wunderground v.1.15,2013-12-18 11:45:00,
2013-12-18 06:50:00,10.7,8.1,29.94,East,81,0.0,0.0,89,0.00,,,0.00,Wunderground v.1.15,2013-12-18 11:50:00,
2013-12-18 06:55:00,10.7,8.1,29.93,East,81,0.0,0.0,89,0.00,,,0.00,Wunderground v.1.15,2013-12-18 11:55:00,
2013-12-18 07:00:00,10.7,8.1,29.94,East,81,0.0,0.0,89,0.00,,,0.00,Wunderground v.1.15,2013-12-18 12:00:00,
2013-12-18 07:05:00,10.8,8.4,29.94,East,81,0.0,0.0,90,0.00,,,0.00,Wunderground v.1.15,2013-12-18 12:05:00,
2013-12-18 07:10:00,10.8,8.4,29.94,East,81,0.0,0.0,90,0.00,,,0.00,Wunderground v.1.15,2013-12-18 12:10:00,
2013-12-18 07:20:00,11.0,8.6,29.94,East,81,0.0,0.0,90,0.00,,,0.00,Wunderground v.1.15,2013-12-18 12:20:00,
2013-12-18 07:30:00,11.1,8.5,29.94,East,81,0.0,0.0,89,0.00,,,0.00,Wunderground v.1.15,2013-12-18 12:30:00,
2013-12-18 07:40:00,11.1,8.5,29.93,East,81,0.0,0.0,89,0.00,,,0.00,Wunderground v.1.15,2013-12-18 12:40:00,
2013-12-18 07:45:00,11.0,8.4,29.93,East,81,0.0,0.0,89,0.00,,,0.00,Wunderground v.1.15,2013-12-18 12:45:00,
2013-12-18 07:50:00,11.0,8.4,29.93,East,81,0.0,0.0,89,0.00,,,0.00,Wunderground v.1.15,2013-12-18 12:50:00,
2013-12-18 07:55:00,10.9,8.3,29.92,East,81,0.0,0.0,89,0.00,,,0.00,Wunderground v.1.15,2013-12-18 12:55:00,
2013-12-18 08:04:00,10.8,8.2,29.93,East,81,0.0,0.0,89,0.00,,,0.00,Wunderground v.1.15,2013-12-18 13:04:00,
2013-12-18 08:10:00,10.8,8.2,29.93,East,81,0.0,0.0,89,0.00,,,0.00,Wunderground v.1.15,2013-12-18 13:10:00,
2013-12-18 08:15:00,10.8,8.2,29.93,East,81,0.0,0.0,89,0.00,,,0.00,Wunderground v.1.15,2013-12-18 13:15:00,
2013-12-18 08:24:00,11.3,8.7,29.93,East,81,0.0,0.0,89,0.00,,,0.00,Wunderground v.1.15,2013-12-18 13:24:00,
2013-12-18 08:30:00,11.7,9.1,29.93,East,81,0.0,0.0,89,0.00,,,0.00,Wunderground v.1.15,2013-12-18 13:30:00,
2013-12-18 08:35:00,12.0,9.4,29.93,East,81,0.0,0.0,89,0.00,,,0.00,Wunderground v.1.15,2013-12-18 13:35:00,
2013-12-18 08:45:00,13.0,10.1,29.93,East,81,0.0,0.0,88,0.00,,,0.00,Wunderground v.1.15,2013-12-18 13:45:00,
2013-12-18 08:55:00,13.4,10.0,29.92,East,81,0.0,0.0,86,0.00,,,0.00,Wunderground v.1.15,2013-12-18 13:55:00,
2013-12-18 09:00:00,13.6,10.2,29.92,East,81,0.0,0.0,86,0.00,,,0.00,Wunderground v.1.15,2013-12-18 14:00:00,
2013-12-18 09:10:00,13.4,9.7,29.92,East,81,0.0,0.0,85,0.00,,,0.00,Wunderground v.1.15,2013-12-18 14:10:00,
2013-12-18 09:15:00,13.4,9.7,29.92,East,86,0.0,0.0,85,0.00,,,0.00,Wunderground v.1.15,2013-12-18 14:15:00,
2013-12-18 09:20:00,13.4,9.5,29.92,East,83,0.0,1.0,84,0.00,,,0.00,Wunderground v.1.15,2013-12-18 14:20:00,
2013-12-18 09:25:00,13.5,9.6,29.92,East,83,0.0,1.0,84,0.00,,,0.00,Wunderground v.1.15,2013-12-18 14:25:00,
2013-12-18 09:35:00,14.1,9.9,29.92,East,93,0.0,0.0,83,0.00,,,0.00,Wunderground v.1.15,2013-12-18 14:35:00,
2013-12-18 09:40:00,14.0,9.8,29.92,East,93,0.0,2.0,83,0.00,,,0.00,Wunderground v.1.15,2013-12-18 14:40:00,
2013-12-18 09:50:00,14.6,10.4,29.92,East,93,0.0,0.0,83,0.00,,,0.00,Wunderground v.1.15,2013-12-18 14:50:00,
2013-12-18 09:55:00,15.4,11.2,29.91,East,93,0.0,0.0,83,0.00,,,0.00,Wunderground v.1.15,2013-12-18 14:55:00,
2013-12-18 10:00:00,16.4,11.6,29.91,East,93,0.0,0.0,81,0.00,,,0.00,Wunderground v.1.15,2013-12-18 15:00:00,
2013-12-18 10:10:00,17.4,11.7,29.91,East,93,0.0,1.0,78,0.00,,,0.00,Wunderground v.1.15,2013-12-18 15:10:00,
2013-12-18 10:20:00,17.1,11.4,29.90,East,93,0.0,0.0,78,0.00,,,0.00,Wunderground v.1.15,2013-12-18 15:20:00,
2013-12-18 10:29:00,17.7,12.0,29.90,East,93,0.0,1.0,78,0.00,,,0.00,Wunderground v.1.15,2013-12-18 15:29:00,
2013-12-18 10:35:00,17.6,11.9,29.90,East,93,0.0,1.0,78,0.00,,,0.00,Wunderground v.1.15,2013-12-18 15:35:00,
2013-12-18 10:45:00,18.0,12.3,29.88,ENE,69,0.0,2.0,78,0.00,,,0.00,Wunderground v.1.15,2013-12-18 15:45:00,
2013-12-18 10:55:00,18.7,12.7,29.88,ENE,69,0.0,1.0,77,0.00,,,0.00,Wunderground v.1.15,2013-12-18 15:55:00,
2013-12-18 11:00:00,19.0,13.0,29.87,ENE,69,0.0,0.0,77,0.00,,,0.00,Wunderground v.1.15,2013-12-18 16:00:00,
2013-12-18 11:09:00,19.8,13.5,29.87,East,81,0.0,0.0,76,0.00,,,0.00,Wunderground v.1.15,2013-12-18 16:09:00,
2013-12-18 11:15:00,20.2,13.5,29.87,East,81,0.0,0.0,75,0.00,,,0.01,Wunderground v.1.15,2013-12-18 16:15:00,
2013-12-18 11:25:00,20.4,14.0,29.86,East,80,0.0,0.0,76,0.00,,,0.01,Wunderground v.1.15,2013-12-18 16:25:00,
2013-12-18 11:30:00,21.2,14.5,29.86,East,80,0.0,0.0,75,0.00,,,0.02,Wunderground v.1.15,2013-12-18 16:30:00,
2013-12-18 11:40:00,21.4,14.4,29.86,East,80,0.0,0.0,74,0.00,,,0.02,Wunderground v.1.15,2013-12-18 16:40:00,
2013-12-18 11:50:00,21.6,14.6,29.85,East,82,0.0,0.0,74,0.00,,,0.02,Wunderground v.1.15,2013-12-18 16:50:00,
2013-12-18 12:00:00,21.9,14.9,29.85,East,82,0.0,0.0,74,0.00,,,0.02,Wunderground v.1.15,2013-12-18 17:00:00,
2013-12-18 12:10:00,21.9,15.5,29.86,ENE,70,1.0,2.0,76,0.00,,,0.02,Wunderground v.1.15,2013-12-18 17:10:00,
2013-12-18 12:15:00,22.0,15.6,29.86,ENE,72,0.0,2.0,76,0.00,,,0.03,Wunderground v.1.15,2013-12-18 17:15:00,
2013-12-18 12:25:00,22.0,15.6,29.85,ENE,72,0.0,0.0,76,0.00,,,0.03,Wunderground v.1.15,2013-12-18 17:25:00,
2013-12-18 12:30:00,22.1,15.7,29.85,ENE,72,0.0,0.0,76,0.00,,,0.03,Wunderground v.1.15,2013-12-18 17:30:00,
2013-12-18 12:40:00,22.7,16.0,29.85,ENE,72,0.0,0.0,75,0.00,,,0.03,Wunderground v.1.15,2013-12-18 17:40:00,
2013-12-18 12:45:00,23.1,16.4,29.85,ENE,72,0.0,0.0,75,0.00,,,0.03,Wunderground v.1.15,2013-12-18 17:45:00,
2013-12-18 12:55:00,23.6,16.8,29.84,ENE,74,1.0,3.0,75,0.00,,,0.03,Wunderground v.1.15,2013-12-18 17:55:00,
2013-12-18 13:05:00,24.4,17.6,29.84,ENE,74,0.0,0.0,75,0.00,,,0.03,Wunderground v.1.15,2013-12-18 18:05:00,
2013-12-18 13:10:00,24.9,17.8,29.84,ENE,74,0.0,0.0,74,0.00,,,0.03,Wunderground v.1.15,2013-12-18 18:10:00,
2013-12-18 13:20:00,25.5,18.4,29.84,ENE,74,0.0,0.0,74,0.00,,,0.04,Wunderground v.1.15,2013-12-18 18:20:00,
2013-12-18 13:30:00,25.5,18.0,29.84,East,80,0.0,0.0,73,0.00,,,0.04,Wunderground v.1.15,2013-12-18 18:30:00,
2013-12-18 13:35:00,25.4,18.3,29.84,East,80,0.0,0.0,74,0.00,,,0.04,Wunderground v.1.15,2013-12-18 18:35:00,
2013-12-18 13:45:00,25.5,18.7,29.84,East,83,0.0,0.0,75,0.00,,,0.04,Wunderground v.1.15,2013-12-18 18:45:00,
2013-12-18 13:50:00,25.6,18.8,29.84,East,83,0.0,0.0,75,0.00,,,0.04,Wunderground v.1.15,2013-12-18 18:50:00,
2013-12-18 17:10:00,19.4,16.4,29.87,ESE,123,0.0,0.0,88,0.00,,,0.04,Wunderground v.1.15,2013-12-18 22:10:00,
2013-12-18 17:15:00,19.4,16.7,29.87,ESE,123,0.0,0.0,89,0.00,,,0.04,Wunderground v.1.15,2013-12-18 22:15:00,
2013-12-18 17:20:00,19.4,16.7,29.87,ESE,123,0.0,0.0,89,0.00,,,0.04,Wunderground v.1.15,2013-12-18 22:20:00,
2013-12-18 17:25:00,19.4,16.7,29.87,ESE,123,0.0,0.0,89,0.00,,,0.04,Wunderground v.1.15,2013-12-18 22:25:00,
2013-12-18 17:34:00,19.4,16.7,29.87,ESE,123,0.0,0.0,89,0.00,,,0.04,Wunderground v.1.15,2013-12-18 22:34:00,
2013-12-18 17:40:00,19.4,16.7,29.88,ESE,123,0.0,0.0,89,0.00,,,0.04,Wunderground v.1.15,2013-12-18 22:40:00,
2013-12-18 17:45:00,19.4,16.4,29.88,ESE,123,0.0,0.0,88,0.00,,,0.04,Wunderground v.1.15,2013-12-18 22:45:00,
2013-12-18 17:50:00,19.4,16.7,29.88,ESE,123,0.0,0.0,89,0.00,,,0.04,Wunderground v.1.15,2013-12-18 22:50:00,
2013-12-18 17:55:00,19.6,16.9,29.88,ESE,123,0.0,0.0,89,0.00,,,0.04,Wunderground v.1.15,2013-12-18 22:55:00,
2013-12-18 18:05:00,19.9,17.2,29.89,ENE,75,1.0,1.0,89,0.00,,,0.04,Wunderground v.1.15,2013-12-18 23:05:00,
2013-12-18 18:10:00,19.8,16.8,29.89,ENE,75,0.0,0.0,88,0.00,,,0.04,Wunderground v.1.15,2013-12-18 23:10:00,
2013-12-18 18:15:00,19.5,16.5,29.89,ENE,75,0.0,0.0,88,0.00,,,0.04,Wunderground v.1.15,2013-12-18 23:15:00,
2013-12-18 18:25:00,19.3,16.6,29.89,ENE,75,0.0,0.0,89,0.00,,,0.04,Wunderground v.1.15,2013-12-18 23:25:00,
2013-12-18 18:35:00,19.3,16.8,29.90,ENE,75,0.0,0.0,90,0.00,,,0.04,Wunderground v.1.15,2013-12-18 23:35:00,
2013-12-18 18:45:00,19.3,16.8,29.90,ENE,75,0.0,0.0,90,0.00,,,0.04,Wunderground v.1.15,2013-12-18 23:45:00,
2013-12-18 18:54:00,19.5,17.3,29.89,ENE,75,0.0,0.0,91,0.00,,,0.04,Wunderground v.1.15,2013-12-18 23:54:00,
2013-12-18 19:00:00,19.5,17.3,29.90,ENE,75,0.0,0.0,91,0.00,,,0.04,Wunderground v.1.15,2013-12-19 00:00:00,
2013-12-18 19:10:00,19.3,16.8,29.90,ENE,75,0.0,0.0,90,0.00,,,0.04,Wunderground v.1.15,2013-12-19 00:10:00,
2013-12-18 19:15:00,18.9,16.5,29.89,ENE,75,0.0,0.0,90,0.00,,,0.04,Wunderground v.1.15,2013-12-19 00:15:00,
2013-12-18 19:20:00,18.9,16.7,29.89,ENE,75,0.0,0.0,91,0.00,,,0.04,Wunderground v.1.15,2013-12-19 00:20:00,
2013-12-18 19:25:00,18.8,16.6,29.89,ENE,75,0.0,0.0,91,0.00,,,0.04,Wunderground v.1.15,2013-12-19 00:25:00,
2013-12-18 19:30:00,18.5,16.3,29.89,ENE,75,0.0,0.0,91,0.00,,,0.04,Wunderground v.1.15,2013-12-19 00:30:00,
2013-12-18 19:40:00,18.0,16.1,29.89,ENE,75,0.0,0.0,92,0.00,,,0.04,Wunderground v.1.15,2013-12-19 00:40:00,
2013-12-18 19:45:00,17.9,16.0,29.89,ENE,75,0.0,0.0,92,0.00,,,0.04,Wunderground v.1.15,2013-12-19 00:45:00,
2013-12-18 19:55:00,17.7,15.8,29.89,ENE,75,0.0,0.0,92,0.00,,,0.04,Wunderground v.1.15,2013-12-19 00:55:00,
2013-12-18 20:00:00,17.5,15.6,29.89,SE,125,0.0,0.0,92,0.00,,,0.04,Wunderground v.1.15,2013-12-19 01:00:00,
2013-12-18 20:09:00,17.4,15.5,29.89,SE,125,0.0,0.0,92,0.00,,,0.04,Wunderground v.1.15,2013-12-19 01:09:00,
2013-12-18 20:15:00,17.1,15.2,29.89,SE,125,0.0,0.0,92,0.00,,,0.04,Wunderground v.1.15,2013-12-19 01:15:00,
2013-12-18 20:20:00,17.1,15.2,29.89,SE,125,0.0,0.0,92,0.00,,,0.04,Wunderground v.1.15,2013-12-19 01:20:00,
2013-12-18 20:30:00,16.3,13.9,29.89,SE,125,0.0,0.0,90,0.00,,,0.04,Wunderground v.1.15,2013-12-19 01:30:00,
2013-12-18 20:40:00,15.9,14.0,29.89,SE,125,0.0,1.0,92,0.00,,,0.04,Wunderground v.1.15,2013-12-19 01:40:00,
2013-12-18 20:50:00,15.9,14.0,29.89,SE,125,0.0,0.0,92,0.00,,,0.04,Wunderground v.1.15,2013-12-19 01:50:00,
2013-12-18 20:55:00,15.9,14.0,29.89,SE,125,0.0,0.0,92,0.00,,,0.04,Wunderground v.1.15,2013-12-19 01:55:00,
2013-12-18 21:00:00,15.8,13.9,29.89,SE,125,0.0,0.0,92,0.00,,,0.04,Wunderground v.1.15,2013-12-19 02:00:00,
2013-12-18 21:05:00,15.8,13.9,29.89,SE,125,0.0,0.0,92,0.00,,,0.04,Wunderground v.1.15,2013-12-19 02:05:00,
2013-12-18 21:10:00,16.0,14.3,29.89,SE,125,0.0,0.0,93,0.00,,,0.04,Wunderground v.1.15,2013-12-19 02:10:00,
2013-12-18 21:20:00,16.5,14.8,29.89,SE,125,0.0,0.0,93,0.00,,,0.04,Wunderground v.1.15,2013-12-19 02:20:00,
2013-12-18 21:30:00,16.7,14.8,29.90,SE,125,0.0,0.0,92,0.00,,,0.04,Wunderground v.1.15,2013-12-19 02:30:00,
2013-12-18 21:35:00,16.8,14.9,29.90,SE,125,0.0,0.0,92,0.00,,,0.04,Wunderground v.1.15,2013-12-19 02:35:00,
2013-12-18 21:45:00,17.2,15.5,29.91,SE,125,0.0,0.0,93,0.00,,,0.04,Wunderground v.1.15,2013-12-19 02:45:00,
2013-12-18 21:50:00,17.6,15.9,29.91,SE,125,0.0,0.0,93,0.00,,,0.04,Wunderground v.1.15,2013-12-19 02:50:00,
2013-12-18 21:55:00,17.7,16.0,29.91,SE,125,0.0,0.0,93,0.00,,,0.04,Wunderground v.1.15,2013-12-19 02:55:00,
2013-12-18 22:00:00,17.6,15.9,29.91,SE,125,0.0,0.0,93,0.00,,,0.04,Wunderground v.1.15,2013-12-19 03:00:00,
2013-12-18 22:10:00,17.8,16.1,29.91,SE,125,0.0,0.0,93,0.00,,,0.04,Wunderground v.1.15,2013-12-19 03:10:00,
2013-12-18 22:15:00,18.0,16.3,29.91,SE,125,0.0,0.0,93,0.00,,,0.04,Wunderground v.1.15,2013-12-19 03:15:00,
2013-12-18 22:20:00,18.0,16.3,29.91,SE,125,0.0,0.0,93,0.00,,,0.04,Wunderground v.1.15,2013-12-19 03:20:00,
2013-12-18 22:25:00,18.1,16.4,29.91,SE,125,0.0,0.0,93,0.00,,,0.04,Wunderground v.1.15,2013-12-19 03:25:00,
2013-12-18 22:35:00,18.4,16.7,29.91,SE,125,0.0,0.0,93,0.00,,,0.04,Wunderground v.1.15,2013-12-19 03:35:00,
2013-12-18 22:45:00,18.8,17.1,29.91,SE,125,0.0,0.0,93,0.00,,,0.04,Wunderground v.1.15,2013-12-19 03:45:00,
2013-12-18 22:55:00,19.0,17.3,29.91,SE,125,0.0,0.0,93,0.00,,,0.04,Wunderground v.1.15,2013-12-19 03:55:00,
2013-12-18 23:00:00,19.1,17.4,29.91,SE,125,0.0,0.0,93,0.00,,,0.04,Wunderground v.1.15,2013-12-19 04:00:00,
2013-12-18 23:10:00,19.1,17.4,29.91,SE,125,0.0,0.0,93,0.00,,,0.04,Wunderground v.1.15,2013-12-19 04:10:00,
2013-12-18 23:15:00,19.0,17.3,29.91,SE,125,0.0,0.0,93,0.00,,,0.04,Wunderground v.1.15,2013-12-19 04:15:00,
2013-12-18 23:20:00,18.9,17.0,29.91,SE,125,0.0,0.0,92,0.00,,,0.04,Wunderground v.1.15,2013-12-19 04:20:00,
2013-12-18 23:30:00,18.8,17.1,29.91,SE,125,0.0,0.0,93,0.00,,,0.04,Wunderground v.1.15,2013-12-19 04:30:00,
2013-12-18 23:35:00,19.0,17.3,29.91,SE,125,0.0,0.0,93,0.00,,,0.04,Wunderground v.1.15,2013-12-19 04:35:00,
2013-12-18 23:45:00,18.9,17.2,29.91,SE,125,0.0,0.0,93,0.00,,,0.04,Wunderground v.1.15,2013-12-19 04:45:00,
2013-12-18 23:50:00,18.8,16.9,29.90,SE,125,0.0,0.0,92,0.00,,,0.04,Wunderground v.1.15,2013-12-19 04:50:00,
2013-12-18 23:55:00,18.8,17.1,29.91,SE,125,0.0,0.0,93,0.00,,,0.04,Wunderground v.1.15,2013-12-19 04:55:00,